Time;durP1;ratioP1;P1;durP2;ratioP2;P2;SDS_P1;SDS_P2;PMS_P1;PMS_P2;Temp;Humidity;BMP_temperature;BMP_pressure;BME280_temperature;BME280_humidity;BME280_pressure;Samples;Min_cycle;Max_cycle;Signal;HPM_P1;HPM_P2
2023/10/05 00:00:36;;;;;;;6.00;4.10;;;11.60;99.90;;;;;;932213;149;27397;-77
2023/10/05 00:02:56;;;;;;;5.03;3.93;;;11.60;99.90;;;;;;941827;149;27402;-78
2023/10/05 00:05:23;;;;;;;5.33;3.77;;;11.60;99.90;;;;;;931080;149;27365;-77
2023/10/05 00:07:48;;;;;;;7.17;4.37;;;11.60;99.90;;;;;;932918;149;27448;-77
2023/10/05 00:10:15;;;;;;;6.07;3.97;;;11.60;99.90;;;;;;933559;149;27380;-77
2023/10/05 00:12:41;;;;;;;6.73;4.17;;;11.60;99.90;;;;;;949610;146;27346;-77
2023/10/05 00:17:36;;;;;;;5.43;4.03;;;11.60;99.90;;;;;;948976;146;27327;-77
2023/10/05 00:20:06;;;;;;;6.67;4.10;;;11.60;99.90;;;;;;948086;146;27354;-77
2023/10/05 00:22:28;;;;;;;5.93;4.37;;;11.60;99.90;;;;;;932022;149;27365;-77
2023/10/05 00:24:54;;;;;;;5.83;4.27;;;11.60;99.90;;;;;;952708;146;27404;-77
2023/10/05 00:27:21;;;;;;;4.83;3.80;;;11.60;99.90;;;;;;949968;148;27422;-77
2023/10/05 00:29:53;;;;;;;7.83;4.33;;;11.60;99.90;;;;;;946581;146;27343;-77
2023/10/05 00:32:22;;;;;;;6.57;4.27;;;11.60;99.90;;;;;;931598;149;27452;-77
2023/10/05 00:35:11;;;;;;;7.47;3.90;;;11.50;99.90;;;;;;948500;146;27400;-78
2023/10/05 00:37:13;;;;;;;5.13;3.90;;;11.50;99.90;;;;;;928396;149;27346;-77
2023/10/05 00:39:41;;;;;;;6.33;4.20;;;11.50;99.90;;;;;;946840;148;27368;-77
2023/10/05 00:42:08;;;;;;;8.23;4.40;;;11.50;99.90;;;;;;946471;148;27274;-77
2023/10/05 00:44:34;;;;;;;5.43;3.47;;;11.50;99.90;;;;;;945972;148;27359;-77
2023/10/05 00:47:05;;;;;;;6.20;4.10;;;11.50;99.90;;;;;;946650;149;27368;-77
2023/10/05 00:49:29;;;;;;;6.03;4.10;;;11.50;99.90;;;;;;943089;148;27279;-77
2023/10/05 00:52:11;;;;;;;4.50;4.00;;;11.50;99.90;;;;;;946170;148;27372;-77
2023/10/05 00:54:34;;;;;;;5.50;4.03;;;11.50;99.90;;;;;;948593;146;27360;-78
2023/10/05 00:57:03;;;;;;;7.77;4.73;;;11.50;99.90;;;;;;932374;149;27423;-77
2023/10/05 00:59:27;;;;;;;4.73;3.83;;;11.50;99.90;;;;;;947468;148;27749;-79
2023/10/05 01:05:16;;;;;;;7.13;4.10;;;11.50;99.90;;;;;;948518;146;27806;-79
2023/10/05 01:06:57;;;;;;;7.77;4.07;;;11.50;99.90;;;;;;918256;149;27813;-79
2023/10/05 01:12:25;;;;;;;5.40;4.47;;;11.50;99.90;;;;;;939966;149;27285;-78
2023/10/05 01:14:43;;;;;;;5.60;3.97;;;11.50;99.90;;;;;;930814;149;27511;-77
2023/10/05 01:17:05;;;;;;;5.57;4.37;;;11.50;99.90;;;;;;933272;149;28306;-78
2023/10/05 01:19:38;;;;;;;8.97;4.30;;;11.50;99.90;;;;;;948042;146;27280;-78
2023/10/05 01:22:02;;;;;;;6.87;4.00;;;11.50;99.90;;;;;;946364;146;27742;-78
2023/10/05 01:24:25;;;;;;;5.50;4.30;;;11.50;99.90;;;;;;951662;146;27362;-78
2023/10/05 01:26:52;;;;;;;5.37;3.83;;;11.50;99.90;;;;;;934621;149;27348;-78
2023/10/05 01:29:19;;;;;;;5.77;4.30;;;11.40;99.90;;;;;;948691;146;27760;-78
2023/10/05 01:31:46;;;;;;;7.07;4.63;;;11.40;99.90;;;;;;951611;146;27452;-78
2023/10/05 01:34:12;;;;;;;7.60;4.40;;;11.40;99.90;;;;;;940868;149;27331;-78
2023/10/05 01:36:38;;;;;;;6.27;3.77;;;11.40;99.90;;;;;;931932;149;27301;-78
2023/10/05 01:39:09;;;;;;;7.30;4.27;;;11.40;99.90;;;;;;938587;149;27358;-78
2023/10/05 01:41:31;;;;;;;5.90;4.13;;;11.30;99.90;;;;;;934909;149;27315;-78
2023/10/05 01:44:00;;;;;;;4.93;3.93;;;11.30;99.90;;;;;;933511;149;27376;-78
2023/10/05 01:46:25;;;;;;;7.10;4.03;;;11.30;99.90;;;;;;933713;149;27321;-78
2023/10/05 01:48:52;;;;;;;8.00;4.47;;;11.30;99.90;;;;;;935824;149;27320;-78
2023/10/05 01:51:23;;;;;;;5.70;4.00;;;11.30;99.90;;;;;;949264;146;27412;-77
2023/10/05 01:53:45;;;;;;;7.87;4.63;;;11.30;99.90;;;;;;951359;146;27815;-78
2023/10/05 01:56:20;;;;;;;7.37;3.70;;;11.30;99.90;;;;;;934302;149;27357;-78
2023/10/05 01:58:43;;;;;;;6.97;4.07;;;11.30;99.90;;;;;;948355;146;27409;-78
2023/10/05 02:01:10;;;;;;;6.20;4.13;;;11.30;99.90;;;;;;948906;146;27375;-77
2023/10/05 02:03:36;;;;;;;7.70;4.63;;;11.30;99.90;;;;;;947543;146;27334;-77
2023/10/05 02:06:11;;;;;;;6.60;4.13;;;11.30;99.90;;;;;;949437;146;27310;-77
2023/10/05 02:08:33;;;;;;;5.40;3.63;;;11.30;99.90;;;;;;932222;149;27456;-76
2023/10/05 02:10:56;;;;;;;6.73;4.57;;;11.30;99.90;;;;;;932117;149;27329;-75
2023/10/05 02:13:23;;;;;;;6.27;4.23;;;11.30;99.90;;;;;;947332;146;27418;-76
2023/10/05 02:15:54;;;;;;;6.97;4.83;;;11.30;99.90;;;;;;952870;146;27311;-76
2023/10/05 02:18:34;;;;;;;7.70;4.70;;;11.30;99.90;;;;;;949279;148;27489;-75
2023/10/05 02:20:50;;;;;;;5.47;4.07;;;11.30;99.90;;;;;;946945;148;27379;-76
2023/10/05 02:23:37;;;;;;;6.43;4.10;;;11.40;99.90;;;;;;947349;146;27735;-76
2023/10/05 02:26:10;;;;;;;7.67;4.40;;;11.40;99.90;;;;;;951831;146;27397;-76
2023/10/05 02:28:33;;;;;;;5.07;3.87;;;11.40;99.90;;;;;;949040;148;27913;-75
2023/10/05 02:30:59;;;;;;;9.40;4.37;;;11.40;99.90;;;;;;932903;149;27397;-76
2023/10/05 02:33:27;;;;;;;5.93;4.10;;;11.40;99.90;;;;;;931865;149;27291;-75
2023/10/05 02:35:56;;;;;;;6.30;4.57;;;11.50;99.90;;;;;;946593;148;27453;-75
2023/10/05 02:38:21;;;;;;;5.87;3.80;;;11.50;99.90;;;;;;946791;148;27345;-75
2023/10/05 02:40:54;;;;;;;6.33;4.40;;;11.50;99.90;;;;;;948986;146;27934;-75
2023/10/05 02:43:14;;;;;;;5.03;4.10;;;11.50;99.90;;;;;;947646;146;27351;-75
2023/10/05 02:45:38;;;;;;;5.67;3.90;;;11.60;99.90;;;;;;948550;146;27323;-75
2023/10/05 02:48:10;;;;;;;7.13;4.17;;;11.60;99.90;;;;;;948455;146;27346;-75
2023/10/05 02:50:37;;;;;;;6.63;4.33;;;11.60;99.90;;;;;;952164;146;27741;-76
2023/10/05 02:53:06;;;;;;;7.83;4.43;;;11.60;99.90;;;;;;940235;149;27380;-76
2023/10/05 02:55:32;;;;;;;4.93;4.23;;;11.60;99.90;;;;;;931219;149;27413;-75
2023/10/05 02:57:53;;;;;;;5.10;3.90;;;11.60;99.90;;;;;;948463;146;27311;-76
2023/10/05 03:00:20;;;;;;;6.63;4.17;;;11.60;99.90;;;;;;949200;146;27362;-76
2023/10/05 03:02:49;;;;;;;7.97;3.90;;;11.60;99.90;;;;;;933971;149;27311;-75
2023/10/05 03:05:13;;;;;;;6.10;3.80;;;11.70;99.90;;;;;;948552;146;27295;-75
2023/10/05 03:07:41;;;;;;;4.37;3.63;;;11.70;99.90;;;;;;932111;149;27325;-76
2023/10/05 03:10:10;;;;;;;5.30;4.00;;;11.70;99.90;;;;;;932446;150;27491;-76
2023/10/05 03:12:33;;;;;;;6.53;4.30;;;11.70;99.90;;;;;;931198;149;27391;-75
2023/10/05 03:15:05;;;;;;;6.37;4.23;;;11.70;99.90;;;;;;932582;149;27351;-76
2023/10/05 03:17:27;;;;;;;5.53;4.07;;;11.70;99.90;;;;;;941854;149;27375;-73
2023/10/05 03:19:53;;;;;;;5.57;3.97;;;11.70;99.90;;;;;;934016;149;27412;-73
2023/10/05 03:22:23;;;;;;;6.97;4.57;;;11.70;99.90;;;;;;940386;149;27364;-76
2023/10/05 03:24:47;;;;;;;6.87;4.33;;;11.70;99.90;;;;;;933711;149;27327;-73
2023/10/05 03:27:13;;;;;;;4.93;3.80;;;11.70;99.90;;;;;;932640;149;27327;-74
2023/10/05 03:29:42;;;;;;;5.70;4.10;;;11.70;99.90;;;;;;947754;146;27472;-73
2023/10/05 03:34:36;;;;;;;8.70;4.90;;;11.70;99.90;;;;;;930255;149;27377;-73
2023/10/05 03:37:24;;;;;;;5.60;4.17;;;11.70;99.90;;;;;;932006;149;27359;-74
2023/10/05 03:39:33;;;;;;;6.23;4.20;;;11.70;99.90;;;;;;940458;146;27318;-74
2023/10/05 03:41:55;;;;;;;5.83;3.97;;;11.70;99.90;;;;;;938993;149;27423;-73
2023/10/05 03:44:24;;;;;;;4.97;3.47;;;11.70;99.90;;;;;;946976;146;27362;-74
2023/10/05 03:46:49;;;;;;;5.53;3.90;;;11.70;99.90;;;;;;933614;149;27336;-73
2023/10/05 03:49:15;;;;;;;6.30;3.60;;;11.70;99.90;;;;;;948450;146;27369;-76
2023/10/05 03:51:49;;;;;;;6.60;4.00;;;11.70;99.90;;;;;;941534;149;27342;-72
2023/10/05 03:54:11;;;;;;;5.23;3.53;;;11.70;99.90;;;;;;936349;149;27473;-73
2023/10/05 03:56:37;;;;;;;6.27;4.10;;;11.70;99.90;;;;;;932865;149;27949;-72
2023/10/05 03:59:04;;;;;;;6.83;4.23;;;11.70;99.90;;;;;;948985;148;27860;-74
2023/10/05 04:01:31;;;;;;;5.37;3.93;;;11.70;99.90;;;;;;947633;148;27402;-77
2023/10/05 04:03:57;;;;;;;7.57;4.50;;;11.70;99.90;;;;;;953891;147;27463;-74
2023/10/05 04:06:26;;;;;;;4.93;3.60;;;11.70;99.90;;;;;;953322;147;27260;-72
2023/10/05 04:08:51;;;;;;;6.53;4.50;;;11.70;99.90;;;;;;953447;147;27411;-75
2023/10/05 04:11:17;;;;;;;5.13;3.73;;;11.70;99.90;;;;;;953327;147;27391;-74
2023/10/05 04:13:43;;;;;;;6.30;4.47;;;11.70;99.90;;;;;;953541;147;27427;-77
2023/10/05 04:16:18;;;;;;;8.23;4.60;;;11.70;99.90;;;;;;954992;147;27726;-74
2023/10/05 04:18:38;;;;;;;5.83;4.23;;;11.70;99.90;;;;;;952187;147;27363;-76
2023/10/05 04:21:04;;;;;;;6.03;4.63;;;11.70;99.90;;;;;;952274;147;27378;-73
2023/10/05 04:23:30;;;;;;;5.27;4.20;;;11.70;99.90;;;;;;953299;147;27319;-73
2023/10/05 04:25:57;;;;;;;7.17;4.40;;;11.70;99.90;;;;;;953098;147;27324;-74
2023/10/05 04:28:39;;;;;;;4.90;3.33;;;11.70;99.90;;;;;;953379;147;27458;-75
2023/10/05 04:30:58;;;;;;;5.93;4.23;;;11.70;99.90;;;;;;951331;147;27453;-74
2023/10/05 04:33:29;;;;;;;6.77;4.07;;;11.70;99.90;;;;;;953535;147;27786;-76
2023/10/05 04:35:52;;;;;;;5.87;4.17;;;11.70;99.90;;;;;;953144;147;27439;-73
2023/10/05 04:38:22;;;;;;;7.43;4.53;;;11.70;99.90;;;;;;953898;147;27810;-75
2023/10/05 04:40:45;;;;;;;9.20;4.53;;;11.70;99.90;;;;;;953091;147;27453;-73
2023/10/05 04:43:12;;;;;;;5.53;4.10;;;11.70;99.90;;;;;;953611;147;27432;-74
2023/10/05 04:45:42;;;;;;;7.20;4.20;;;11.60;99.90;;;;;;953463;147;27494;-74
2023/10/05 04:48:06;;;;;;;6.37;4.10;;;11.70;99.90;;;;;;952890;147;27335;-76
2023/10/05 04:50:35;;;;;;;5.03;4.00;;;11.70;99.90;;;;;;953130;147;27850;-73
2023/10/05 04:53:00;;;;;;;5.23;4.07;;;11.60;99.90;;;;;;953418;147;27390;-74
2023/10/05 04:55:31;;;;;;;4.37;3.73;;;11.60;99.90;;;;;;952855;147;27336;-75
2023/10/05 04:58:14;;;;;;;6.00;4.33;;;11.60;99.90;;;;;;952625;147;27338;-75
2023/10/05 05:03:32;;;;;;;7.83;4.30;;;11.70;99.90;;;;;;951449;147;27475;-74
2023/10/05 05:08:31;;;;;;;6.77;3.90;;;11.60;99.90;;;;;;947798;148;27708;-74
2023/10/05 05:10:56;;;;;;;5.60;4.40;;;11.60;99.90;;;;;;948121;148;27437;-74
2023/10/05 05:13:22;;;;;;;6.07;3.80;;;11.60;99.90;;;;;;948749;148;27411;-75
2023/10/05 05:15:48;;;;;;;6.57;3.83;;;11.60;99.90;;;;;;948465;148;27392;-73
2023/10/05 05:18:15;;;;;;;6.93;4.00;;;11.60;99.90;;;;;;948979;148;27328;-73
2023/10/05 05:20:42;;;;;;;7.13;4.40;;;11.60;99.90;;;;;;947713;148;27368;-73
2023/10/05 05:23:10;;;;;;;6.70;4.53;;;11.60;99.90;;;;;;948566;148;27338;-75
2023/10/05 05:25:37;;;;;;;6.97;4.33;;;11.60;99.90;;;;;;947038;148;27329;-76
2023/10/05 05:28:05;;;;;;;8.37;4.90;;;11.70;99.90;;;;;;946839;148;27352;-77
2023/10/05 05:30:29;;;;;;;5.13;4.20;;;11.70;99.90;;;;;;948284;148;27421;-75
2023/10/05 05:32:55;;;;;;;8.33;4.47;;;11.70;99.90;;;;;;949236;148;27364;-76
2023/10/05 05:35:21;;;;;;;8.37;4.43;;;11.70;99.90;;;;;;933054;149;27320;-76
2023/10/05 05:37:48;;;;;;;6.37;4.57;;;11.70;99.90;;;;;;931592;149;27327;-75
2023/10/05 05:40:14;;;;;;;7.83;5.00;;;11.70;99.90;;;;;;934195;149;27339;-77
2023/10/05 05:42:41;;;;;;;6.53;4.47;;;11.70;99.90;;;;;;933841;149;27417;-77
2023/10/05 05:45:15;;;;;;;6.83;4.40;;;11.70;99.90;;;;;;953844;146;27432;-77
2023/10/05 05:47:37;;;;;;;8.20;4.70;;;11.80;99.90;;;;;;945525;148;27923;-76
2023/10/05 05:50:03;;;;;;;5.07;4.27;;;11.80;99.90;;;;;;934006;149;27452;-77
2023/10/05 05:52:30;;;;;;;5.00;3.77;;;11.80;99.90;;;;;;936665;149;27446;-75
2023/10/05 05:54:59;;;;;;;6.67;4.00;;;11.80;99.90;;;;;;931096;149;27369;-75
2023/10/05 05:57:23;;;;;;;5.43;4.30;;;11.80;99.90;;;;;;931640;149;27459;-76
2023/10/05 05:59:49;;;;;;;7.23;4.70;;;11.90;99.90;;;;;;932765;149;27491;-78
2023/10/05 06:02:16;;;;;;;6.03;4.10;;;11.90;99.90;;;;;;933871;149;28160;-77
2023/10/05 06:04:43;;;;;;;5.80;4.40;;;11.90;99.90;;;;;;949541;147;27448;-76
2023/10/05 06:07:13;;;;;;;5.87;4.77;;;11.90;99.90;;;;;;969716;145;27309;-77
2023/10/05 06:09:39;;;;;;;7.60;5.20;;;12.00;99.90;;;;;;949925;148;28433;-76
2023/10/05 06:12:05;;;;;;;7.20;4.23;;;12.00;99.90;;;;;;949704;148;27372;-77
2023/10/05 06:17:01;;;;;;;7.50;5.17;;;12.00;99.90;;;;;;972129;143;37451;-76
2023/10/05 06:19:27;;;;;;;6.23;3.97;;;12.10;99.90;;;;;;959101;145;27372;-78
2023/10/05 06:21:54;;;;;;;8.30;4.33;;;12.10;99.90;;;;;;957020;146;28235;-75
2023/10/05 06:24:20;;;;;;;6.63;4.50;;;12.20;99.90;;;;;;958403;145;27719;-75
2023/10/05 06:26:47;;;;;;;5.40;4.63;;;12.20;99.90;;;;;;956316;146;27247;-77
2023/10/05 06:29:14;;;;;;;6.37;4.53;;;12.20;99.90;;;;;;955879;146;27323;-75
2023/10/05 06:31:43;;;;;;;7.43;4.67;;;12.20;99.90;;;;;;957164;146;27351;-75
2023/10/05 06:34:09;;;;;;;4.83;4.10;;;12.30;99.90;;;;;;956374;146;27416;-75
2023/10/05 06:36:39;;;;;;;6.33;4.67;;;12.40;99.90;;;;;;956608;145;27756;-75
2023/10/05 06:39:09;;;;;;;5.87;4.60;;;12.40;99.90;;;;;;956015;146;27395;-78
2023/10/05 06:41:32;;;;;;;5.20;4.00;;;12.50;99.90;;;;;;957775;146;27290;-75
2023/10/05 06:43:58;;;;;;;6.63;4.80;;;12.60;99.90;;;;;;956883;145;27326;-75
2023/10/05 06:46:26;;;;;;;5.23;4.00;;;12.60;99.90;;;;;;956406;145;27292;-75
2023/10/05 06:48:52;;;;;;;7.13;4.30;;;12.70;99.90;;;;;;956004;145;27660;-79
2023/10/05 06:51:28;;;;;;;7.67;4.47;;;12.80;99.90;;;;;;958352;146;27333;-78
2023/10/05 06:53:54;;;;;;;7.53;4.37;;;12.90;99.90;;;;;;956732;146;27371;-78
2023/10/05 06:56:20;;;;;;;5.77;4.27;;;12.90;99.90;;;;;;955241;145;27480;-78
2023/10/05 06:58:47;;;;;;;6.90;4.57;;;13.00;99.90;;;;;;956840;146;27377;-78
2023/10/05 07:01:14;;;;;;;7.07;4.57;;;13.10;99.90;;;;;;955883;146;27813;-78
2023/10/05 07:03:40;;;;;;;16.73;6.53;;;13.30;99.90;;;;;;955408;146;27764;-78
2023/10/05 07:06:07;;;;;;;4.28;3.75;;;13.40;99.90;;;;;;957766;146;27335;-78
2023/10/05 07:08:33;;;;;;;8.00;4.62;;;13.50;99.90;;;;;;953946;146;27318;-79
2023/10/05 07:11:00;;;;;;;6.65;4.08;;;13.60;99.90;;;;;;957568;145;27398;-78
2023/10/05 07:13:28;;;;;;;6.12;4.33;;;13.80;99.90;;;;;;956024;145;27445;-78
2023/10/05 07:15:55;;;;;;;7.67;4.10;;;13.90;99.90;;;;;;954302;145;27455;-79
2023/10/05 07:18:20;;;;;;;5.75;4.03;;;14.00;99.90;;;;;;948553;146;27313;-78
2023/10/05 07:20:46;;;;;;;5.87;3.80;;;14.20;99.90;;;;;;948162;146;27338;-78
2023/10/05 07:23:13;;;;;;;6.87;4.22;;;14.30;99.90;;;;;;951074;146;27393;-78
2023/10/05 07:25:41;;;;;;;8.23;4.17;;;14.50;99.90;;;;;;951142;146;27451;-78
2023/10/05 07:28:13;;;;;;;5.17;4.15;;;14.80;99.90;;;;;;950563;146;27398;-78
2023/10/05 07:30:33;;;;;;;5.97;3.85;;;15.00;99.90;;;;;;948964;146;27719;-78
2023/10/05 07:32:59;;;;;;;7.33;3.70;;;15.30;99.90;;;;;;948792;146;27309;-78
2023/10/05 07:35:26;;;;;;;6.50;4.10;;;15.70;99.90;;;;;;947558;146;27790;-78
2023/10/05 07:37:52;;;;;;;7.05;4.58;;;16.00;99.90;;;;;;948147;146;27346;-78
2023/10/05 07:40:19;;;;;;;7.12;3.72;;;16.30;99.90;;;;;;948753;146;27341;-78
2023/10/05 07:42:45;;;;;;;7.20;4.15;;;16.60;99.90;;;;;;949145;146;28047;-78
2023/10/05 07:45:13;;;;;;;8.60;4.62;;;17.00;99.90;;;;;;950761;146;27697;-78
2023/10/05 07:47:41;;;;;;;5.40;4.00;;;17.40;99.90;;;;;;952197;146;27370;-78
2023/10/05 07:50:11;;;;;;;5.53;3.85;;;17.60;99.90;;;;;;948445;146;27381;-78
2023/10/05 07:52:35;;;;;;;5.78;3.60;;;17.90;99.90;;;;;;951901;146;27354;-78
2023/10/05 07:55:01;;;;;;;6.80;4.10;;;18.10;99.90;;;;;;950873;146;27317;-78
2023/10/05 07:57:29;;;;;;;5.53;4.20;;;18.20;99.90;;;;;;950285;146;27332;-74
2023/10/05 07:59:54;;;;;;;5.00;3.85;;;18.30;99.70;;;;;;948728;146;27386;-75
2023/10/05 08:02:21;;;;;;;6.42;3.90;;;18.40;99.10;;;;;;951531;146;27387;-75
2023/10/05 08:04:47;;;;;;;5.05;3.45;;;18.50;99.50;;;;;;948430;146;27423;-76
2023/10/05 08:07:15;;;;;;;5.20;3.62;;;18.60;99.70;;;;;;949758;146;27896;-76
2023/10/05 08:09:43;;;;;;;4.62;3.65;;;18.80;99.70;;;;;;948646;146;27414;-75
2023/10/05 08:12:07;;;;;;;4.80;3.60;;;19.00;99.50;;;;;;952058;146;27324;-76
2023/10/05 08:14:34;;;;;;;5.25;3.72;;;19.30;99.90;;;;;;952092;146;27366;-75
2023/10/05 08:17:00;;;;;;;5.75;4.58;;;19.50;99.90;;;;;;948629;146;27772;-77
2023/10/05 08:19:28;;;;;;;4.85;3.65;;;19.90;99.80;;;;;;950568;146;27430;-75
2023/10/05 08:21:54;;;;;;;4.33;3.17;;;20.30;99.50;;;;;;950494;146;27324;-75
2023/10/05 08:24:20;;;;;;;5.05;3.45;;;20.70;97.80;;;;;;950856;146;28342;-76
2023/10/05 08:26:48;;;;;;;6.65;3.30;;;21.00;96.30;;;;;;949872;146;27326;-77
2023/10/05 08:29:14;;;;;;;5.90;3.67;;;21.30;94.70;;;;;;948540;146;27294;-77
2023/10/05 08:31:40;;;;;;;4.72;3.42;;;21.60;93.60;;;;;;950124;146;27328;-75
2023/10/05 08:34:08;;;;;;;5.40;3.50;;;21.90;92.60;;;;;;949767;146;27328;-75
2023/10/05 08:36:33;;;;;;;6.83;3.35;;;22.10;91.10;;;;;;948863;146;27406;-76
2023/10/05 08:39:00;;;;;;;5.55;3.58;;;22.40;90.30;;;;;;951113;146;27220;-72
2023/10/05 08:41:32;;;;;;;5.87;3.35;;;22.60;89.20;;;;;;949265;146;27406;-74
2023/10/05 08:44:06;;;;;;;4.40;3.42;;;22.90;87.40;;;;;;949369;146;27264;-72
2023/10/05 08:46:28;;;;;;;6.97;3.50;;;23.20;86.00;;;;;;949991;146;27267;-72
2023/10/05 08:48:57;;;;;;;4.17;2.85;;;23.50;83.80;;;;;;950089;146;27440;-75
2023/10/05 08:51:24;;;;;;;4.72;3.25;;;23.80;83.90;;;;;;950948;146;27287;-71
2023/10/05 08:53:55;;;;;;;4.03;3.05;;;24.10;81.90;;;;;;950908;146;27304;-74
2023/10/05 08:56:17;;;;;;;7.17;3.58;;;24.50;82.30;;;;;;950264;146;27371;-72
2023/10/05 08:58:46;;;;;;;5.62;2.72;;;24.80;80.70;;;;;;950785;146;27322;-72
2023/10/05 09:01:31;;;;;;;5.08;2.87;;;25.20;79.20;;;;;;950867;146;27332;-75
2023/10/05 09:06:55;;;;;;;3.92;3.20;;;26.00;76.10;;;;;;949027;146;28463;-73
2023/10/05 09:09:21;;;;;;;5.30;3.22;;;26.20;73.80;;;;;;950626;146;27309;-76
2023/10/05 09:11:47;;;;;;;5.08;3.27;;;26.50;72.00;;;;;;947542;146;27464;-76
2023/10/05 09:14:38;;;;;;;4.17;3.00;;;26.60;70.60;;;;;;947568;146;28277;-76
2023/10/05 09:16:46;;;;;;;6.17;3.22;;;26.70;69.60;;;;;;941449;146;27355;-76
2023/10/05 09:19:18;;;;;;;6.15;2.90;;;26.90;69.00;;;;;;954450;146;27452;-76
2023/10/05 09:22:33;;;;;;;5.10;3.67;;;27.00;68.60;;;;;;952378;146;27317;-76
2023/10/05 09:24:22;;;;;;;5.78;3.55;;;27.10;68.00;;;;;;946342;146;27335;-76
2023/10/05 09:26:58;;;;;;;4.33;3.35;;;27.20;67.20;;;;;;955231;146;27410;-76
2023/10/05 09:29:31;;;;;;;6.35;3.83;;;27.30;66.80;;;;;;954354;146;27362;-76
2023/10/05 09:31:58;;;;;;;5.22;3.33;;;27.40;66.70;;;;;;954352;146;27343;-76
2023/10/05 09:34:38;;;;;;;5.33;3.35;;;27.50;65.60;;;;;;954877;146;27234;-76
2023/10/05 09:37:05;;;;;;;6.67;3.87;;;27.60;64.80;;;;;;954276;146;28331;-76
2023/10/05 09:39:31;;;;;;;6.37;3.90;;;27.70;64.30;;;;;;954905;146;27316;-76
2023/10/05 09:41:57;;;;;;;5.30;3.30;;;27.60;63.20;;;;;;953373;146;27303;-76
2023/10/05 09:44:28;;;;;;;5.45;3.37;;;27.50;62.30;;;;;;952848;146;27301;-76
2023/10/05 09:46:50;;;;;;;5.72;3.25;;;27.40;61.30;;;;;;950902;146;27311;-76
2023/10/05 09:49:17;;;;;;;5.72;3.17;;;27.30;60.80;;;;;;954613;146;27271;-76
2023/10/05 09:51:48;;;;;;;5.40;3.40;;;27.10;60.60;;;;;;954305;146;27319;-76
2023/10/05 09:54:11;;;;;;;6.70;2.95;;;26.90;60.20;;;;;;953631;146;27450;-76
2023/10/05 09:56:41;;;;;;;5.42;3.30;;;26.60;60.00;;;;;;953648;146;27238;-76
2023/10/05 09:59:03;;;;;;;5.05;3.15;;;26.40;60.00;;;;;;954243;146;27358;-76
2023/10/05 10:01:30;;;;;;;4.95;3.02;;;26.10;60.10;;;;;;953895;146;27372;-76
2023/10/05 10:03:57;;;;;;;5.20;2.80;;;25.90;60.10;;;;;;954231;146;27333;-76
2023/10/05 10:06:28;;;;;;;6.00;2.95;;;25.70;60.20;;;;;;957688;146;27259;-76
2023/10/05 10:08:57;;;;;;;5.60;2.87;;;25.50;60.20;;;;;;953036;146;27361;-76
2023/10/05 10:11:24;;;;;;;3.77;2.52;;;25.20;60.40;;;;;;954713;146;27783;-76
2023/10/05 10:14:06;;;;;;;4.83;2.47;;;25.00;60.50;;;;;;953822;146;27354;-76
2023/10/05 10:16:41;;;;;;;4.40;2.52;;;24.90;60.80;;;;;;954703;146;27396;-76
2023/10/05 10:19:08;;;;;;;3.65;2.37;;;24.70;61.10;;;;;;954343;146;27508;-81
2023/10/05 10:21:41;;;;;;;2.98;2.42;;;24.50;61.40;;;;;;952601;146;27319;-77
2023/10/05 10:24:07;;;;;;;5.45;2.90;;;24.40;61.50;;;;;;949752;146;27459;-77
2023/10/05 10:26:45;;;;;;;5.47;2.77;;;24.20;61.60;;;;;;955920;146;27331;-81
2023/10/05 10:29:12;;;;;;;4.90;3.02;;;24.10;61.60;;;;;;953036;146;27380;-74
2023/10/05 10:31:48;;;;;;;4.42;2.80;;;23.90;61.70;;;;;;954481;146;27345;-78
2023/10/05 10:34:28;;;;;;;4.90;2.83;;;23.80;62.00;;;;;;953698;146;27372;-81
2023/10/05 10:36:52;;;;;;;4.85;2.58;;;23.70;62.50;;;;;;953966;146;27306;-80
2023/10/05 10:39:27;;;;;;;3.37;2.60;;;23.60;62.80;;;;;;956045;146;27683;-77
2023/10/05 10:42:07;;;;;;;6.05;3.40;;;23.50;62.90;;;;;;953184;146;27352;-79
2023/10/05 10:44:41;;;;;;;5.03;2.60;;;23.40;63.30;;;;;;954845;146;27346;-76
2023/10/05 10:47:11;;;;;;;4.33;2.92;;;23.40;63.60;;;;;;954239;146;27372;-80
2023/10/05 10:49:34;;;;;;;5.22;3.02;;;23.40;63.60;;;;;;952439;146;27417;-80
2023/10/05 10:52:02;;;;;;;4.28;3.00;;;23.40;63.60;;;;;;953907;146;27330;-81
2023/10/05 10:54:28;;;;;;;8.35;3.75;;;23.40;63.50;;;;;;953272;146;27792;-80
2023/10/05 10:56:55;;;;;;;6.80;3.00;;;23.30;63.30;;;;;;953676;146;27359;-81
2023/10/05 10:59:26;;;;;;;4.00;2.37;;;23.30;63.10;;;;;;955503;146;27336;-80
2023/10/05 11:01:58;;;;;;;4.62;2.35;;;23.30;63.10;;;;;;952274;146;27395;-80
2023/10/05 11:04:26;;;;;;;4.90;2.58;;;23.20;63.00;;;;;;952549;146;27341;-77
2023/10/05 11:06:59;;;;;;;4.17;2.62;;;23.10;63.00;;;;;;950766;146;27481;-80
2023/10/05 11:09:30;;;;;;;5.70;2.80;;;23.00;63.00;;;;;;953279;146;27858;-76
2023/10/05 11:11:49;;;;;;;4.70;2.83;;;23.00;63.30;;;;;;953618;146;27401;-81
2023/10/05 11:14:21;;;;;;;3.45;2.50;;;22.90;63.30;;;;;;954312;146;27289;-75
2023/10/05 11:16:44;;;;;;;4.25;2.75;;;22.90;63.60;;;;;;953187;146;27399;-79
2023/10/05 11:19:14;;;;;;;5.92;2.62;;;22.80;63.80;;;;;;950487;146;27378;-78
2023/10/05 11:21:46;;;;;;;4.90;2.45;;;22.80;64.10;;;;;;945054;147;27363;-81
2023/10/05 11:24:18;;;;;;;5.55;3.15;;;22.80;64.20;;;;;;944135;147;27436;-77
2023/10/05 11:27:27;;;;;;;5.92;2.90;;;22.80;64.10;;;;;;944391;147;27354;-82
2023/10/05 11:29:17;;;;;;;4.42;2.80;;;22.80;64.20;;;;;;931830;150;27360;-77
2023/10/05 11:31:44;;;;;;;4.15;2.27;;;22.80;64.20;;;;;;946384;147;27372;-77
2023/10/05 11:34:11;;;;;;;7.53;3.20;;;22.80;64.10;;;;;;943140;147;27461;-78
2023/10/05 11:36:44;;;;;;;3.47;2.55;;;22.80;63.90;;;;;;944333;147;27376;-77
2023/10/05 11:39:21;;;;;;;4.33;2.95;;;22.80;63.90;;;;;;944986;147;27444;-77
2023/10/05 11:41:41;;;;;;;5.30;3.42;;;22.70;63.90;;;;;;944039;147;27429;-77
2023/10/05 11:44:12;;;;;;;4.28;3.10;;;22.70;63.90;;;;;;943420;147;27393;-78
2023/10/05 11:46:49;;;;;;;4.22;2.52;;;22.60;63.90;;;;;;945233;147;27327;-77
2023/10/05 11:49:15;;;;;;;6.28;3.30;;;22.60;63.90;;;;;;943826;147;27429;-77
2023/10/05 11:51:54;;;;;;;3.47;2.62;;;22.50;63.90;;;;;;945634;147;27416;-77
2023/10/05 11:54:12;;;;;;;5.45;3.00;;;22.50;64.10;;;;;;944801;147;27456;-77
2023/10/05 11:56:41;;;;;;;4.58;2.80;;;22.40;64.20;;;;;;944742;147;27369;-75
2023/10/05 11:59:10;;;;;;;6.50;2.95;;;22.40;64.40;;;;;;945120;147;27469;-74
2023/10/05 12:01:40;;;;;;;4.10;2.77;;;22.40;64.40;;;;;;945835;147;27378;-74
2023/10/05 12:04:04;;;;;;;3.60;2.77;;;22.30;64.60;;;;;;944948;147;27339;-74
2023/10/05 12:06:29;;;;;;;4.12;2.50;;;22.30;64.70;;;;;;948347;147;27427;-75
2023/10/05 12:11:29;;;;;;;5.15;2.75;;;22.20;64.50;;;;;;927139;147;27371;-74
2023/10/05 12:13:58;;;;;;;6.22;3.08;;;22.20;64.40;;;;;;944993;147;27466;-75
2023/10/05 12:16:21;;;;;;;5.42;2.65;;;22.10;64.50;;;;;;944131;147;27444;-74
2023/10/05 12:18:50;;;;;;;3.83;2.30;;;22.10;64.60;;;;;;946771;147;27830;-74
2023/10/05 12:21:15;;;;;;;3.65;2.47;;;22.00;64.70;;;;;;954025;146;27404;-74
2023/10/05 12:23:41;;;;;;;4.85;2.60;;;22.00;64.70;;;;;;954412;146;27379;-74
2023/10/05 12:26:10;;;;;;;5.17;3.22;;;22.00;64.90;;;;;;956682;146;27420;-74
2023/10/05 12:28:34;;;;;;;5.53;3.25;;;21.90;65.00;;;;;;953694;146;27319;-74
2023/10/05 12:31:02;;;;;;;4.05;2.37;;;21.90;65.10;;;;;;955290;146;27364;-75
2023/10/05 12:33:28;;;;;;;6.53;2.95;;;21.90;65.20;;;;;;955209;146;27451;-74
2023/10/05 12:35:54;;;;;;;2.92;2.10;;;21.90;65.30;;;;;;956014;146;27346;-74
2023/10/05 12:38:21;;;;;;;6.92;3.02;;;21.90;65.40;;;;;;954186;146;27325;-75
2023/10/05 12:40:47;;;;;;;3.40;2.33;;;21.90;65.50;;;;;;956701;145;27360;-75
2023/10/05 12:43:16;;;;;;;4.78;2.72;;;21.90;65.60;;;;;;954631;146;27404;-75
2023/10/05 12:45:44;;;;;;;5.22;2.95;;;21.90;65.70;;;;;;955411;146;27732;-75
2023/10/05 12:48:11;;;;;;;3.45;2.33;;;21.90;65.90;;;;;;955106;146;28580;-75
2023/10/05 12:50:36;;;;;;;4.10;2.15;;;21.90;65.80;;;;;;954184;146;27344;-75
2023/10/05 12:53:05;;;;;;;3.50;2.20;;;21.90;65.60;;;;;;955895;146;27291;-75
2023/10/05 12:55:29;;;;;;;3.12;2.35;;;22.00;65.50;;;;;;953930;146;27331;-75
2023/10/05 12:57:57;;;;;;;3.92;2.33;;;22.00;65.30;;;;;;955014;146;27351;-75
2023/10/05 13:00:27;;;;;;;4.35;2.35;;;22.00;65.30;;;;;;955410;146;27452;-75
2023/10/05 13:02:51;;;;;;;6.53;2.62;;;22.00;65.30;;;;;;956368;146;27326;-75
2023/10/05 13:05:20;;;;;;;4.97;2.67;;;22.00;65.30;;;;;;952951;146;27313;-76
2023/10/05 13:07:43;;;;;;;3.45;2.47;;;22.00;65.30;;;;;;954402;146;27403;-76
2023/10/05 13:10:13;;;;;;;4.47;2.50;;;22.00;65.10;;;;;;956542;146;27387;-76
2023/10/05 13:12:35;;;;;;;3.45;2.27;;;22.00;65.00;;;;;;955523;146;27402;-76